createdAt,value
2023-09-27T01:09:38.316Z,18.50
2023-09-27T01:12:07.295Z,18.40
2023-09-27T01:14:34.788Z,18.40
2023-09-27T01:17:11.767Z,18.40
2023-09-27T01:19:39.933Z,18.40
2023-09-27T01:22:07.048Z,18.40
2023-09-27T01:24:40.043Z,18.40
2023-09-27T01:27:10.567Z,18.40
2023-09-27T01:29:37.647Z,18.50
2023-09-27T01:32:04.714Z,18.50
2023-09-27T01:34:31.670Z,18.50
2023-09-27T01:37:01.315Z,18.40
2023-09-27T01:39:31.572Z,18.40
2023-09-27T01:42:01.171Z,18.40
2023-09-27T01:44:28.147Z,18.40
2023-09-27T01:46:55.308Z,18.40
2023-09-27T01:49:23.229Z,18.40
2023-09-27T01:51:50.527Z,18.40
2023-09-27T01:54:20.844Z,18.40
2023-09-27T01:56:48.807Z,18.30
2023-09-27T01:59:18.735Z,18.30
2023-09-27T02:01:45.786Z,18.30
2023-09-27T02:04:12.764Z,18.30
2023-09-27T02:06:39.658Z,18.20
2023-09-27T02:09:07.020Z,18.20
2023-09-27T02:11:35.169Z,18.20
2023-09-27T02:14:05.314Z,18.20
2023-09-27T02:16:34.480Z,18.10
2023-09-27T02:19:05.346Z,18.10
2023-09-27T02:21:32.317Z,18.10
2023-09-27T02:23:59.275Z,18.10
2023-09-27T02:26:26.503Z,18.10
2023-09-27T02:28:53.892Z,18.00
2023-09-27T02:31:21.087Z,18.00
2023-09-27T02:33:48.108Z,18.00
2023-09-27T02:36:15.138Z,18.00
2023-09-27T02:38:42.018Z,17.90
2023-09-27T02:41:09.295Z,17.90
2023-09-27T02:43:36.405Z,17.90
2023-09-27T02:46:03.398Z,17.90
2023-09-27T02:48:31.069Z,17.80
2023-09-27T02:50:58.524Z,17.80
2023-09-27T02:53:25.637Z,17.80
2023-09-27T02:55:52.877Z,17.80
2023-09-27T02:58:23.495Z,17.80
2023-09-27T03:00:50.683Z,17.80
2023-09-27T03:03:21.409Z,17.80
2023-09-27T03:05:48.568Z,17.80
2023-09-27T03:08:15.497Z,17.80
2023-09-27T03:10:43.975Z,17.80
2023-09-27T03:13:12.193Z,17.70
2023-09-27T03:15:39.297Z,17.70
2023-09-27T03:18:06.855Z,17.70
2023-09-27T03:20:34.392Z,17.70
2023-09-27T03:23:01.566Z,17.70
2023-09-27T03:25:28.436Z,17.70
2023-09-27T03:27:55.811Z,17.70
2023-09-27T03:30:23.987Z,17.70
2023-09-27T03:32:51.090Z,17.70
2023-09-27T03:35:23.364Z,17.70
2023-09-27T03:37:52.042Z,17.70
2023-09-27T03:40:19.398Z,17.60
2023-09-27T03:42:47.565Z,17.60
2023-09-27T03:45:18.618Z,17.60
2023-09-27T03:47:49.545Z,17.60
2023-09-27T03:50:25.308Z,17.60
2023-09-27T03:52:56.580Z,17.60
2023-09-27T03:55:26.154Z,17.60
2023-09-27T03:57:53.447Z,17.60
2023-09-27T04:00:21.833Z,17.50
2023-09-27T04:02:51.330Z,17.50
2023-09-27T04:05:20.261Z,17.50
2023-09-27T04:07:47.930Z,17.50
2023-09-27T04:10:15.016Z,17.40
2023-09-27T04:12:42.076Z,17.50
2023-09-27T04:15:13.707Z,17.40
2023-09-27T04:17:41.061Z,17.40
2023-09-27T04:20:17.773Z,17.40
2023-09-27T04:22:47.103Z,17.40
2023-09-27T04:25:15.468Z,17.40
2023-09-27T04:27:47.555Z,17.40
2023-09-27T04:30:20.609Z,17.40
2023-09-27T04:32:51.582Z,17.40
2023-09-27T04:35:19.255Z,17.40
2023-09-27T04:37:47.248Z,17.40
2023-09-27T04:40:15.372Z,17.40
2023-09-27T04:42:43.411Z,17.40
2023-09-27T04:45:14.389Z,17.40
2023-09-27T04:47:42.512Z,17.40
2023-09-27T04:50:13.268Z,17.30
2023-09-27T04:52:40.973Z,17.30
2023-09-27T04:55:10.123Z,17.30
2023-09-27T04:57:37.701Z,17.30
2023-09-27T05:00:07.547Z,17.30
2023-09-27T05:02:34.530Z,17.30
2023-09-27T05:05:01.530Z,17.30
2023-09-27T05:07:28.490Z,17.30
2023-09-27T05:09:55.475Z,17.20
2023-09-27T05:12:22.399Z,17.20
2023-09-27T05:14:49.371Z,17.20
2023-09-27T05:17:16.426Z,17.20
2023-09-27T05:19:43.439Z,17.20
2023-09-27T05:22:10.385Z,17.20
2023-09-27T05:24:40.194Z,17.20
2023-09-27T05:27:08.607Z,17.20
2023-09-27T05:29:36.196Z,17.20
2023-09-27T05:32:03.978Z,17.20
2023-09-27T05:34:35.229Z,17.20
2023-09-27T05:37:02.845Z,17.20
2023-09-27T05:39:29.817Z,17.20
2023-09-27T05:41:56.673Z,17.20
2023-09-27T05:44:23.526Z,17.30
2023-09-27T05:46:50.447Z,17.30
2023-09-27T05:49:18.106Z,17.30
2023-09-27T05:51:45.090Z,17.40
2023-09-27T05:54:12.146Z,17.40
2023-09-27T05:56:39.341Z,17.40
2023-09-27T05:59:10.414Z,17.50
2023-09-27T06:01:37.453Z,17.50
2023-09-27T06:04:05.382Z,17.50
2023-09-27T06:06:32.342Z,17.50
2023-09-27T06:08:59.781Z,17.60
2023-09-27T06:11:27.174Z,17.60
2023-09-27T06:13:54.790Z,17.60
2023-09-27T06:16:22.907Z,17.70
2023-09-27T06:18:50.661Z,17.70
2023-09-27T06:21:17.999Z,17.80
2023-09-27T06:23:46.052Z,17.80
2023-09-27T06:26:13.921Z,17.90
2023-09-27T06:28:41.470Z,17.90
2023-09-27T06:31:08.766Z,18.00
2023-09-27T06:33:40.362Z,18.10
2023-09-27T06:36:12.937Z,18.10
2023-09-27T06:38:40.912Z,18.20
2023-09-27T06:41:10.071Z,18.40
2023-09-27T06:43:37.149Z,18.50
2023-09-27T06:46:11.530Z,18.50
2023-09-27T06:48:39.269Z,18.60
2023-09-27T06:51:07.112Z,18.70
2023-09-27T06:53:34.752Z,18.70
2023-09-27T06:56:05.015Z,18.70
2023-09-27T06:58:38.241Z,18.80
2023-09-27T07:01:05.598Z,18.80
2023-09-27T07:03:38.048Z,18.90
2023-09-27T07:06:05.130Z,18.90
2023-09-27T07:08:34.864Z,18.90
2023-09-27T07:11:10.271Z,19.00
2023-09-27T07:13:41.083Z,19.00
2023-09-27T07:16:38.097Z,19.10
2023-09-27T07:19:14.702Z,19.20
2023-09-27T07:21:41.925Z,19.30
2023-09-27T07:24:11.025Z,19.40
2023-09-27T07:26:42.616Z,19.60
2023-09-27T07:29:10.689Z,19.70
2023-09-27T07:31:37.669Z,19.80
2023-09-27T07:34:04.719Z,20.00
2023-09-27T07:36:31.919Z,20.10
2023-09-27T07:38:59.620Z,20.30
2023-09-27T07:41:27.476Z,20.30
2023-09-27T07:43:54.987Z,20.30
2023-09-27T07:46:23.136Z,20.30
2023-09-27T07:48:50.279Z,20.40
2023-09-27T07:51:19.514Z,20.40
2023-09-27T07:53:47.098Z,20.50
2023-09-27T07:56:26.905Z,20.60
2023-09-27T07:58:55.554Z,20.80
2023-09-27T08:01:23.787Z,21.00
2023-09-27T08:03:54.119Z,21.10
2023-09-27T08:06:22.140Z,21.30
2023-09-27T08:08:49.322Z,21.60
2023-09-27T08:11:19.072Z,21.70
2023-09-27T08:13:46.094Z,21.90
2023-09-27T08:16:18.848Z,22.00
2023-09-27T08:18:45.719Z,22.20
2023-09-27T08:21:12.745Z,22.30
2023-09-27T08:23:41.474Z,22.60
2023-09-27T08:26:13.785Z,22.90
2023-09-27T08:28:41.379Z,23.20
2023-09-27T08:31:08.298Z,23.40
2023-09-27T08:33:35.423Z,23.60
2023-09-27T08:36:02.529Z,23.60
2023-09-27T08:38:29.696Z,23.60
2023-09-27T08:40:56.563Z,23.50
2023-09-27T08:43:26.701Z,23.50
2023-09-27T08:45:54.935Z,23.50
2023-09-27T08:48:25.286Z,23.50
2023-09-27T08:50:52.767Z,23.50
2023-09-27T08:53:19.780Z,23.60
2023-09-27T08:55:54.368Z,23.60
2023-09-27T08:58:26.329Z,23.60
2023-09-27T09:00:54.689Z,23.50
2023-09-27T09:03:24.935Z,23.40
2023-09-27T09:05:52.450Z,23.30
2023-09-27T09:08:33.418Z,23.20
2023-09-27T09:11:11.392Z,23.10
2023-09-27T09:14:05.915Z,23.10
2023-09-27T09:16:48.810Z,23.00
2023-09-27T09:19:41.810Z,22.90
2023-09-27T09:22:12.712Z,22.90
2023-09-27T09:24:45.280Z,22.80
2023-09-27T09:27:16.346Z,22.90
2023-09-27T09:29:51.957Z,22.90
2023-09-27T09:32:24.728Z,23.00
2023-09-27T09:34:54.742Z,23.00
2023-09-27T09:37:23.653Z,23.00
2023-09-27T09:39:54.026Z,23.10
2023-09-27T09:42:33.040Z,23.10
2023-09-27T09:45:08.266Z,23.20
2023-09-27T09:47:39.002Z,23.30
2023-09-27T09:50:07.741Z,23.40
2023-09-27T09:52:39.271Z,23.50
2023-09-27T09:57:53.269Z,23.70
2023-09-27T10:00:27.148Z,23.80
2023-09-27T10:03:05.910Z,23.90
2023-09-27T10:05:39.232Z,24.00
2023-09-27T10:08:07.730Z,24.10
2023-09-27T10:10:36.168Z,24.20
2023-09-27T10:13:06.733Z,24.30
2023-09-27T10:15:36.960Z,24.50
2023-09-27T10:18:22.957Z,24.70
2023-09-27T10:21:14.119Z,24.90
2023-09-27T10:23:47.908Z,25.00
2023-09-27T10:26:35.367Z,25.10
2023-09-27T10:29:08.354Z,25.10
2023-09-27T10:31:39.022Z,25.10
2023-09-27T10:34:31.819Z,25.20
2023-09-27T10:37:17.312Z,25.20
2023-09-27T10:40:20.341Z,25.40
2023-09-27T10:42:47.631Z,25.50
2023-09-27T10:45:14.761Z,25.50
2023-09-27T10:47:42.041Z,25.40
2023-09-27T10:50:10.524Z,25.30
2023-09-27T10:52:38.546Z,25.20
2023-09-27T10:55:13.599Z,25.10
2023-09-27T10:57:41.970Z,25.10
2023-09-27T11:00:12.461Z,25.30
2023-09-27T11:02:39.811Z,25.50
2023-09-27T11:05:09.615Z,25.70
2023-09-27T11:07:48.263Z,25.90
2023-09-27T11:10:39.352Z,26.10
2023-09-27T11:13:10.904Z,26.30
2023-09-27T11:15:39.254Z,26.60
2023-09-27T11:18:08.647Z,26.80
2023-09-27T11:20:36.278Z,26.80
2023-09-27T11:23:04.049Z,26.90
2023-09-27T11:25:33.135Z,26.90
2023-09-27T11:28:00.328Z,27.00
2023-09-27T11:30:34.155Z,26.90
2023-09-27T11:33:09.439Z,26.80
2023-09-27T11:35:37.090Z,26.70
2023-09-27T11:38:10.619Z,26.60
2023-09-27T11:40:39.517Z,26.50
2023-09-27T11:43:07.051Z,26.40
2023-09-27T11:46:04.990Z,26.30
2023-09-27T11:48:35.884Z,26.30
2023-09-27T11:51:03.905Z,26.40
2023-09-27T11:53:31.597Z,26.50
2023-09-27T11:56:00.599Z,26.50
2023-09-27T11:58:27.904Z,26.50
2023-09-27T12:00:54.788Z,26.60
2023-09-27T12:03:21.919Z,26.50
2023-09-27T12:05:49.788Z,26.60
2023-09-27T12:08:17.091Z,26.60
2023-09-27T12:10:44.187Z,26.60
2023-09-27T12:13:11.092Z,26.70
2023-09-27T12:15:38.072Z,26.70
2023-09-27T12:18:05.777Z,26.70
2023-09-27T12:23:04.104Z,26.90
2023-09-27T12:25:32.853Z,26.90
2023-09-27T12:28:00.043Z,27.00
2023-09-27T12:30:29.197Z,27.10
2023-09-27T12:32:56.868Z,27.10
2023-09-27T12:35:24.202Z,27.20
2023-09-27T12:37:51.308Z,27.30
2023-09-27T12:40:18.466Z,27.30
2023-09-27T12:42:45.404Z,27.40
2023-09-27T12:45:16.185Z,27.50
2023-09-27T12:47:43.389Z,27.60
2023-09-27T12:50:11.028Z,27.60
2023-09-27T12:52:38.472Z,27.60
2023-09-27T12:55:06.601Z,27.60
2023-09-27T12:57:34.030Z,27.60
2023-09-27T13:00:01.316Z,27.60
2023-09-27T13:02:28.699Z,27.60
2023-09-27T13:04:55.845Z,27.70
2023-09-27T13:07:22.981Z,27.70
2023-09-27T13:09:50.966Z,27.70
2023-09-27T13:12:19.010Z,27.70
2023-09-27T13:14:46.348Z,27.60
2023-09-27T13:17:13.503Z,27.60
2023-09-27T13:19:41.020Z,27.60
2023-09-27T13:22:07.912Z,27.60
2023-09-27T13:24:34.873Z,27.50
2023-09-27T13:27:01.914Z,27.40
2023-09-27T13:29:29.056Z,27.30
2023-09-27T13:31:58.221Z,27.30
2023-09-27T13:34:25.195Z,27.30
2023-09-27T13:36:52.104Z,27.40
2023-09-27T13:39:19.023Z,27.50
2023-09-27T13:41:47.424Z,27.70
2023-09-27T13:47:09.379Z,28.00
2023-09-27T13:49:36.483Z,28.10
2023-09-27T13:52:05.716Z,28.00
2023-09-27T13:54:33.293Z,28.00
2023-09-27T13:57:00.200Z,28.10
2023-09-27T13:59:27.934Z,28.10
2023-09-27T14:01:55.056Z,28.10
2023-09-27T14:04:21.944Z,28.10
2023-09-27T14:06:51.251Z,28.20
2023-09-27T14:09:18.280Z,28.20
2023-09-27T14:11:45.330Z,28.20
2023-09-27T14:14:14.511Z,28.10
2023-09-27T14:16:42.391Z,27.90
2023-09-27T14:19:09.488Z,27.80
2023-09-27T14:21:36.544Z,27.60
2023-09-27T14:24:04.179Z,27.60
2023-09-27T14:26:31.512Z,27.50
2023-09-27T14:28:58.453Z,27.50
2023-09-27T14:31:29.577Z,27.50
2023-09-27T14:34:01.947Z,27.40
2023-09-27T14:36:29.916Z,27.40
2023-09-27T14:39:00.131Z,27.40
2023-09-27T14:41:30.194Z,27.30
2023-09-27T14:44:00.817Z,27.30
2023-09-27T14:46:27.857Z,27.30
2023-09-27T14:48:55.017Z,27.20
2023-09-27T14:51:21.882Z,27.20
2023-09-27T14:53:48.813Z,27.20
2023-09-27T14:56:18.176Z,27.10
2023-09-27T14:58:47.630Z,27.10
2023-09-27T15:01:17.095Z,27.10
2023-09-27T15:03:44.037Z,27.00
2023-09-27T15:06:11.672Z,27.00
2023-09-27T15:08:38.812Z,27.00
2023-09-27T15:11:05.662Z,26.90
2023-09-27T15:13:32.673Z,26.90
2023-09-27T15:16:00.744Z,26.90
2023-09-27T15:18:27.755Z,26.90
2023-09-27T15:20:54.869Z,26.90
2023-09-27T15:23:24.499Z,26.80
2023-09-27T15:25:59.695Z,26.90
2023-09-27T15:28:26.640Z,26.90
2023-09-27T15:30:54.169Z,26.90
2023-09-27T15:33:24.328Z,26.90
2023-09-27T15:35:57.659Z,26.80
2023-09-27T15:38:28.050Z,26.80
2023-09-27T15:40:55.650Z,26.70
2023-09-27T15:43:22.699Z,26.70
2023-09-27T15:46:04.286Z,26.60
2023-09-27T15:48:35.614Z,26.60
2023-09-27T15:51:08.164Z,26.60
2023-09-27T15:53:36.156Z,26.60
2023-09-27T15:56:05.165Z,26.50
2023-09-27T15:58:33.447Z,26.40
2023-09-27T16:01:04.983Z,26.40
2023-09-27T16:03:32.540Z,26.30
2023-09-27T16:06:01.782Z,26.30
2023-09-27T16:08:31.603Z,26.20
2023-09-27T16:10:58.705Z,26.20
2023-09-27T16:13:26.350Z,26.20
2023-09-27T16:15:55.541Z,26.20
2023-09-27T16:18:23.019Z,26.20
2023-09-27T16:20:50.245Z,26.20
2023-09-27T16:23:17.883Z,26.30
2023-09-27T16:25:46.667Z,26.30
2023-09-27T16:28:19.867Z,26.20
2023-09-27T16:30:47.744Z,26.20
2023-09-27T16:33:17.478Z,26.10
2023-09-27T16:35:44.608Z,26.00
2023-09-27T16:38:11.429Z,25.90
2023-09-27T16:40:40.155Z,25.80
2023-09-27T16:43:07.524Z,25.70
2023-09-27T16:45:36.364Z,25.60
2023-09-27T16:48:03.878Z,25.50
2023-09-27T16:50:31.008Z,25.40
2023-09-27T16:53:01.175Z,25.20
2023-09-27T16:55:28.231Z,25.20
2023-09-27T16:57:56.236Z,25.10
2023-09-27T17:00:28.737Z,25.00
2023-09-27T17:02:58.299Z,24.90
2023-09-27T17:05:25.800Z,24.90
2023-09-27T17:07:52.633Z,24.80
2023-09-27T17:10:19.684Z,24.80
2023-09-27T17:12:46.593Z,24.70
2023-09-27T17:15:13.632Z,24.70
2023-09-27T17:17:40.529Z,24.60
2023-09-27T17:20:11.492Z,24.60
2023-09-27T17:22:38.761Z,24.50
2023-09-27T17:25:10.669Z,24.50
2023-09-27T17:27:38.363Z,24.40
2023-09-27T17:30:09.668Z,24.30
2023-09-27T17:32:38.700Z,24.30
2023-09-27T17:35:06.396Z,24.30
2023-09-27T17:37:33.847Z,24.20
2023-09-27T17:40:04.746Z,24.20
2023-09-27T17:42:31.629Z,24.10
2023-09-27T17:44:58.678Z,24.10
2023-09-27T17:47:25.675Z,24.00
2023-09-27T17:49:52.753Z,24.00
2023-09-27T17:52:19.868Z,23.90
2023-09-27T17:54:47.144Z,23.90
2023-09-27T17:57:20.518Z,23.80
2023-09-27T17:59:48.786Z,23.80
2023-09-27T18:02:16.404Z,23.70
2023-09-27T18:04:46.395Z,23.70
2023-09-27T18:07:13.769Z,23.70
2023-09-27T18:09:44.349Z,23.60
2023-09-27T18:12:16.166Z,23.60
2023-09-27T18:14:44.697Z,23.60
2023-09-27T18:17:15.287Z,23.50
2023-09-27T18:19:42.390Z,23.50
2023-09-27T18:22:09.693Z,23.50
2023-09-27T18:24:37.277Z,23.50
2023-09-27T18:27:04.457Z,23.50
2023-09-27T18:29:34.358Z,23.40
2023-09-27T18:32:01.556Z,23.40
2023-09-27T18:34:29.063Z,23.40
2023-09-27T18:36:56.111Z,23.40
2023-09-27T18:39:23.741Z,23.40
2023-09-27T18:41:50.916Z,23.40
2023-09-27T18:44:21.823Z,23.30
2023-09-27T18:46:51.244Z,23.30
2023-09-27T18:49:21.269Z,23.30
2023-09-27T18:51:48.431Z,23.30
2023-09-27T18:54:15.565Z,23.30
2023-09-27T18:56:43.398Z,23.30
2023-09-27T18:59:10.999Z,23.30
2023-09-27T19:01:38.010Z,23.20
2023-09-27T19:04:05.131Z,23.20
2023-09-27T19:06:32.203Z,23.20
2023-09-27T19:09:01.872Z,23.20
2023-09-27T19:11:31.232Z,23.20
2023-09-27T19:13:58.409Z,23.10
2023-09-27T19:16:32.645Z,23.10
2023-09-27T19:19:02.561Z,23.10
2023-09-27T19:21:30.577Z,23.10
2023-09-27T19:23:57.774Z,23.10
2023-09-27T19:26:25.018Z,23.10
2023-09-27T19:28:52.835Z,23.10
2023-09-27T19:31:20.100Z,23.10
2023-09-27T19:33:48.572Z,23.10
2023-09-27T19:36:19.311Z,23.10
2023-09-27T19:38:49.786Z,23.10
2023-09-27T19:41:16.940Z,23.00
2023-09-27T19:43:44.460Z,23.00
2023-09-27T19:46:12.403Z,23.00
2023-09-27T19:48:43.477Z,23.00
2023-09-27T19:51:19.949Z,23.00
2023-09-27T19:53:49.249Z,23.00
2023-09-27T19:56:16.204Z,23.00
2023-09-27T19:58:43.210Z,23.00
2023-09-27T20:01:10.525Z,23.00
2023-09-27T20:03:40.591Z,23.00
2023-09-27T20:06:07.693Z,22.90
2023-09-27T20:08:40.927Z,23.00
2023-09-27T20:11:25.989Z,22.90
2023-09-27T20:14:01.707Z,22.90
2023-09-27T20:16:37.146Z,22.90
2023-09-27T20:19:06.220Z,22.90
2023-09-27T20:21:36.349Z,22.90
2023-09-27T20:24:05.351Z,22.90
2023-09-27T20:26:32.436Z,22.90
2023-09-27T20:28:59.437Z,22.90
2023-09-27T20:31:26.518Z,22.90
2023-09-27T20:33:53.778Z,22.90
2023-09-27T20:36:20.903Z,22.90
2023-09-27T20:38:47.744Z,22.90
2023-09-27T20:41:21.290Z,22.90
2023-09-27T20:43:48.269Z,22.90
2023-09-27T20:46:16.474Z,22.90
2023-09-27T20:48:44.848Z,22.80
2023-09-27T20:51:12.089Z,22.80
2023-09-27T20:53:40.520Z,22.80
2023-09-27T20:56:08.712Z,22.80
2023-09-27T20:58:36.694Z,22.80
2023-09-27T21:01:08.323Z,22.80
2023-09-27T21:03:36.760Z,22.80
2023-09-27T21:06:05.118Z,22.80
2023-09-27T21:08:33.049Z,22.70
2023-09-27T21:10:59.863Z,22.80
2023-09-27T21:13:26.831Z,22.70
2023-09-27T21:15:56.240Z,22.70
2023-09-27T21:18:23.204Z,22.70
2023-09-27T21:20:50.036Z,22.70
2023-09-27T21:23:16.956Z,22.70
2023-09-27T21:25:43.873Z,22.60
2023-09-27T21:28:10.881Z,22.60
2023-09-27T21:30:38.586Z,22.60
2023-09-27T21:33:09.676Z,22.60
2023-09-27T21:35:36.510Z,22.60
2023-09-27T21:38:05.143Z,22.60
2023-09-27T21:40:32.038Z,22.60
2023-09-27T21:42:59.130Z,22.60
2023-09-27T21:45:26.781Z,22.60
2023-09-27T21:47:54.237Z,22.60
2023-09-27T21:50:21.159Z,22.60
2023-09-27T21:52:48.222Z,22.70
2023-09-27T21:55:15.170Z,22.60
2023-09-27T21:57:42.109Z,22.60
2023-09-27T22:00:20.836Z,22.60
2023-09-27T22:02:48.274Z,22.70
2023-09-27T22:05:15.324Z,22.70
2023-09-27T22:07:45.552Z,22.70
2023-09-27T22:10:12.593Z,22.70
2023-09-27T22:12:40.173Z,22.60
2023-09-27T22:15:10.648Z,22.60
2023-09-27T22:17:39.008Z,22.60
2023-09-27T22:20:13.839Z,22.60
2023-09-27T22:22:41.425Z,22.60
2023-09-27T22:25:15.758Z,22.50
2023-09-27T22:27:52.384Z,22.50
2023-09-27T22:30:19.824Z,22.50
2023-09-27T22:32:46.763Z,22.50
2023-09-27T22:35:28.472Z,22.50
2023-09-27T22:37:57.269Z,22.40
2023-09-27T22:40:24.745Z,22.40
2023-09-27T22:42:59.015Z,22.50
2023-09-27T22:45:38.236Z,22.40
2023-09-27T22:48:05.536Z,22.40
2023-09-27T22:50:45.604Z,22.40
2023-09-27T22:53:17.141Z,22.40
2023-09-27T22:55:59.088Z,22.40
2023-09-27T22:58:30.486Z,22.40
2023-09-27T23:01:00.561Z,22.40
2023-09-27T23:03:31.677Z,22.40
2023-09-27T23:05:59.041Z,22.30
2023-09-27T23:08:29.010Z,22.30
2023-09-27T23:10:58.033Z,22.40
2023-09-27T23:13:29.964Z,22.40
2023-09-27T23:15:58.278Z,22.30
2023-09-27T23:18:30.960Z,22.30
2023-09-27T23:23:49.335Z,22.30
2023-09-27T23:26:37.223Z,22.30
2023-09-27T23:29:23.231Z,22.30
2023-09-27T23:31:50.116Z,22.20
2023-09-27T23:34:22.245Z,22.20
2023-09-27T23:36:50.721Z,22.20
2023-09-27T23:39:23.129Z,22.20
2023-09-27T23:42:02.724Z,22.20
2023-09-27T23:44:29.689Z,22.10
2023-09-27T23:46:58.944Z,22.10
2023-09-27T23:49:25.828Z,22.10
2023-09-27T23:51:55.068Z,22.10
2023-09-27T23:54:22.335Z,22.00
2023-09-27T23:57:00.079Z,22.00
2023-09-27T23:59:31.395Z,22.00
